Terminal Aerodrome Forecast
Issued by NWS Oklahoma City, OK

Home | Current Version | Previous Version | Text Only | Print | Product List | Glossary On
Versions: 1 2 3 4 5 6 7 8 9 10 11 12 13 14 15 16 17 18 19 20 21 22 23 24 25 26 27 28 29 30 31
000
FTUS44 KOUN 251120
TAFOUN
TAF
KOUN 251120Z 2512/2612 17010KT P6SM SCT015 SCT250
      TEMPO 2512/2515 3SM BR BKN006
     FM251500 19013G22KT P6SM SCT025
     FM260100 16009KT P6SM SCT100 BKN250=

USA.gov is the U.S. government's official web portal to all federal, state and local government web resources and services.